Overview Statistics Trail Chart Weather Telemetry Raw packets
 

This is the latest recevied weather packets stored in our database for station/object MeshWX-1. If no packets are shown the sender has not sent any weather packets the latest 10 day(s).

<< 29 30 31 32 33 34 35 >>
Time Temp. Humidity Pressure Rain* Wind** Luminosity Snow
1787939709 23.89° C 63% 1001.6 hPa - - - -
1787939503 23.89° C 63% 1001.6 hPa - - - -
1787937667 23.89° C 63% 1001.6 hPa - - - -
1787937351 25.56° C 55% 1001.4 hPa - - - -
1787935543 25.56° C 55% 1001.4 hPa - - - -
1787935422 27.78° C 50% 1001.6 hPa - - - -
1787935183 27.78° C 50% 1001.6 hPa - - - -
1787933427 27.78° C 50% 1001.6 hPa - - - -
1787933023 29.44° C 46% 1001.8 hPa - - - -
1787931277 29.44° C 46% 1001.8 hPa - - - -
1787931180 29.44° C 47% 1002 hPa - - - -
1787930866 29.44° C 47% 1002 hPa - - - -
1787929207 29.44° C 47% 1002 hPa - - - -
1787928762 28.33° C 50% 1002.1 hPa - - - -
1787927136 28.33° C 50% 1002.1 hPa - - - -
1787927028 28.33° C 51% 1002.2 hPa - - - -
1787926662 28.33° C 51% 1002.2 hPa - - - -
1787925120 28.33° C 51% 1002.2 hPa - - - -
1787924622 28.33° C 52% 1002.5 hPa - - - -
1787923086 28.33° C 52% 1002.5 hPa - - - -
1787922994 27.22° C 54% 1003 hPa - - - -
1787922582 27.22° C 54% 1003 hPa - - - -
1787921034 27.22° C 54% 1003 hPa - - - -
1787920482 26.11° C 59% 1003.3 hPa - - - -
1787918982 26.11° C 59% 1003.3 hPa - - - -

* Rain since midnight (hover to see other rain measurements)
** Current wind speed in m/s (hover to see current wind gust speed)